Time;durP1;ratioP1;P1;durP2;ratioP2;P2;SDS_P1;SDS_P2;PMS_P1;PMS_P2;Temp;Humidity;BMP_temperature;BMP_pressure;BME280_temperature;BME280_humidity;BME280_pressure;Samples;Min_cycle;Max_cycle;Signal;HPM_P1;HPM_P2
2022/05/18 00:00:12;;;;;;;14.83;6.20;;;21.00;39.40;;;;;;4950046;28;20504;-77
2022/05/18 00:02:38;;;;;;;12.53;6.93;;;21.00;39.30;;;;;;4950743;28;20466;-74
2022/05/18 00:05:05;;;;;;;10.47;6.50;;;20.70;40.30;;;;;;4952014;29;20441;-76
2022/05/18 00:07:31;;;;;;;15.30;7.27;;;20.70;38.90;;;;;;4951142;28;21054;-73
2022/05/18 00:09:57;;;;;;;16.57;7.20;;;20.40;42.00;;;;;;4952497;28;20460;-74
2022/05/18 00:12:23;;;;;;;11.37;6.70;;;20.40;43.00;;;;;;4952602;28;20199;-74
2022/05/18 00:14:49;;;;;;;19.67;7.90;;;20.40;43.60;;;;;;4952554;28;20195;-73
2022/05/18 00:17:15;;;;;;;14.07;7.60;;;20.50;43.10;;;;;;4952471;29;20407;-74
2022/05/18 00:19:40;;;;;;;9.20;7.30;;;20.50;43.40;;;;;;4953463;29;20183;-74
2022/05/18 00:22:06;;;;;;;9.57;7.13;;;20.50;44.10;;;;;;4951710;28;20244;-75
2022/05/18 00:24:32;;;;;;;12.13;8.73;;;20.70;43.10;;;;;;4952850;28;20183;-74
2022/05/18 00:26:57;;;;;;;12.00;8.10;;;19.80;44.70;;;;;;4953877;28;20211;-73
2022/05/18 00:29:23;;;;;;;13.50;9.43;;;19.60;46.30;;;;;;4954538;28;20208;-73
2022/05/18 00:31:49;;;;;;;13.00;9.23;;;19.60;47.70;;;;;;4952667;28;20239;-73
2022/05/18 00:34:18;;;;;;;11.27;7.67;;;19.50;46.60;;;;;;4952782;28;20443;-73
2022/05/18 00:36:43;;;;;;;11.93;7.20;;;19.10;48.00;;;;;;4953127;28;20186;-74
2022/05/18 00:39:09;;;;;;;10.10;6.93;;;19.50;48.30;;;;;;4953628;28;20453;-74
2022/05/18 00:41:35;;;;;;;8.40;7.03;;;19.20;48.60;;;;;;4952335;28;20289;-74
2022/05/18 00:44:01;;;;;;;12.40;7.53;;;19.10;51.20;;;;;;4951625;28;20695;-74
2022/05/18 00:46:27;;;;;;;13.20;7.50;;;19.70;48.10;;;;;;4947670;28;20439;-74
2022/05/18 00:48:53;;;;;;;13.30;7.90;;;19.70;47.20;;;;;;4948986;29;20466;-74
2022/05/18 00:51:51;;;;;;;15.93;7.27;;;19.70;47.10;;;;;;4952412;28;20614;-74
2022/05/18 00:54:24;;;;;;;8.13;6.60;;;19.70;47.60;;;;;;4951234;29;20488;-73
2022/05/18 00:56:53;;;;;;;12.13;7.17;;;19.80;47.00;;;;;;4952466;29;21021;-74
2022/05/18 00:59:27;;;;;;;10.27;7.33;;;20.00;46.00;;;;;;4940611;29;20429;-74
2022/05/18 01:01:54;;;;;;;10.20;7.00;;;20.00;45.80;;;;;;4953783;28;20960;-73
2022/05/18 01:04:23;;;;;;;11.43;7.30;;;20.00;45.90;;;;;;4954086;28;20506;-74
2022/05/18 01:06:59;;;;;;;13.80;7.20;;;20.00;46.40;;;;;;4952725;28;20490;-73
2022/05/18 01:09:30;;;;;;;9.43;7.30;;;20.00;44.90;;;;;;4945823;29;20453;-73
2022/05/18 01:11:55;;;;;;;20.40;7.57;;;19.90;46.00;;;;;;4953293;28;20433;-74
2022/05/18 01:14:28;;;;;;;11.10;7.73;;;20.00;45.90;;;;;;4952864;28;20441;-74
2022/05/18 01:16:55;;;;;;;9.53;6.87;;;19.80;46.50;;;;;;4952641;29;20579;-74
2022/05/18 01:19:44;;;;;;;14.90;7.10;;;19.70;47.50;;;;;;4952994;28;20451;-74
2022/05/18 01:22:36;;;;;;;11.47;7.70;;;19.80;46.30;;;;;;4952919;28;20455;-75
2022/05/18 01:25:21;;;;;;;14.60;7.10;;;19.80;46.50;;;;;;4950316;29;20480;-74
2022/05/18 01:27:46;;;;;;;13.03;7.23;;;19.70;46.80;;;;;;4952868;28;20451;-74
2022/05/18 01:30:13;;;;;;;12.13;7.30;;;19.60;47.70;;;;;;4952978;28;20431;-73
2022/05/18 01:32:45;;;;;;;14.60;7.73;;;19.50;48.50;;;;;;4953366;28;20685;-74
2022/05/18 01:35:19;;;;;;;11.43;7.40;;;19.50;48.50;;;;;;4951667;28;20436;-74
2022/05/18 01:37:45;;;;;;;11.03;8.00;;;19.50;48.10;;;;;;4950998;28;20499;-74
2022/05/18 01:40:44;;;;;;;10.23;6.93;;;19.60;48.40;;;;;;4951389;28;20428;-74
2022/05/18 01:43:17;;;;;;;13.60;7.73;;;19.60;47.60;;;;;;4928202;28;20300;-73
2022/05/18 01:45:43;;;;;;;15.13;8.10;;;19.30;47.40;;;;;;4953398;28;20455;-73
2022/05/18 01:48:15;;;;;;;12.23;7.50;;;19.30;48.60;;;;;;4951737;29;20562;-74
2022/05/18 01:50:42;;;;;;;10.57;6.97;;;19.30;48.90;;;;;;4952378;28;20191;-74
2022/05/18 01:53:08;;;;;;;14.90;7.40;;;19.10;48.00;;;;;;4951440;28;20453;-74
2022/05/18 01:55:34;;;;;;;15.87;8.27;;;19.20;48.30;;;;;;4952265;29;20422;-73
2022/05/18 01:58:00;;;;;;;13.23;7.40;;;18.80;49.20;;;;;;4951643;28;20471;-74
2022/05/18 02:00:27;;;;;;;12.57;9.07;;;19.00;49.60;;;;;;4951235;29;20980;-74
2022/05/18 02:02:54;;;;;;;26.40;10.23;;;19.00;49.10;;;;;;4951763;28;20955;-74
2022/05/18 02:05:19;;;;;;;17.13;9.87;;;18.80;49.90;;;;;;4951942;28;20414;-74
2022/05/18 02:07:46;;;;;;;14.57;8.90;;;18.60;50.30;;;;;;4951511;28;20438;-74
2022/05/18 02:10:12;;;;;;;12.10;9.20;;;18.60;49.90;;;;;;4952220;28;20662;-74
2022/05/18 02:12:39;;;;;;;10.43;7.57;;;18.50;51.10;;;;;;4951828;28;20457;-73
2022/05/18 02:15:05;;;;;;;11.73;7.60;;;18.30;50.80;;;;;;4952037;28;20415;-73
2022/05/18 02:17:31;;;;;;;11.63;7.60;;;17.70;56.50;;;;;;4951316;29;20436;-74
2022/05/18 02:19:58;;;;;;;14.40;7.50;;;17.70;58.00;;;;;;4951322;28;20431;-76
2022/05/18 02:22:24;;;;;;;17.17;8.30;;;18.10;56.10;;;;;;4951070;28;20204;-76
2022/05/18 02:24:50;;;;;;;10.43;7.87;;;18.50;52.60;;;;;;4952298;28;20442;-76
2022/05/18 02:27:16;;;;;;;11.83;7.60;;;18.60;51.30;;;;;;4952333;28;20473;-76
2022/05/18 02:29:41;;;;;;;13.60;8.87;;;18.50;52.80;;;;;;4952545;28;20218;-76
2022/05/18 02:32:09;;;;;;;19.60;8.03;;;18.50;52.50;;;;;;4955254;28;20490;-77
2022/05/18 02:34:35;;;;;;;18.40;7.83;;;18.60;51.50;;;;;;4955098;28;20175;-76
2022/05/18 02:37:01;;;;;;;11.23;7.80;;;18.60;52.30;;;;;;4955516;28;20423;-76
2022/05/18 02:39:26;;;;;;;15.03;8.03;;;18.70;51.00;;;;;;4956417;28;20451;-76
2022/05/18 02:41:52;;;;;;;16.90;8.33;;;18.80;51.10;;;;;;4955627;28;20203;-76
2022/05/18 02:44:19;;;;;;;12.23;7.97;;;18.80;50.80;;;;;;4954352;28;20784;-76
2022/05/18 02:46:45;;;;;;;11.43;7.77;;;18.70;50.50;;;;;;4956676;28;20187;-76
2022/05/18 02:49:11;;;;;;;14.40;7.97;;;18.60;50.40;;;;;;4956571;28;20474;-76
2022/05/18 02:51:39;;;;;;;9.77;7.10;;;18.50;50.50;;;;;;4955317;28;20255;-76
2022/05/18 02:56:05;;;;;;;17.63;8.53;;;18.60;50.80;;;;;;4955872;28;20786;-77
2022/05/18 02:56:52;;;;;;;11.63;8.00;;;18.70;50.60;;;;;;4953871;29;20918;-76
2022/05/18 02:59:19;;;;;;;15.00;8.47;;;18.60;50.60;;;;;;4954227;28;20550;-76
2022/05/18 03:01:45;;;;;;;13.53;8.87;;;18.50;51.00;;;;;;4954967;28;20825;-76
2022/05/18 03:04:11;;;;;;;11.77;8.00;;;18.30;52.20;;;;;;4953724;28;20437;-76
2022/05/18 03:06:37;;;;;;;15.33;8.93;;;17.80;54.30;;;;;;4952844;28;20437;-76
2022/05/18 03:09:02;;;;;;;13.13;9.00;;;17.50;55.80;;;;;;4953049;28;20998;-77
2022/05/18 03:11:28;;;;;;;13.07;8.70;;;17.60;54.70;;;;;;4952765;28;20562;-76
2022/05/18 03:13:53;;;;;;;15.27;9.10;;;17.70;55.10;;;;;;4953989;28;20202;-76
2022/05/18 03:16:19;;;;;;;10.20;8.40;;;18.10;52.60;;;;;;4949526;28;20227;-76
2022/05/18 03:18:45;;;;;;;12.83;8.97;;;18.00;52.50;;;;;;4952838;28;20270;-76
2022/05/18 03:23:55;;;;;;;13.20;8.40;;;17.80;53.60;;;;;;4952855;29;20194;-76
2022/05/18 03:26:23;;;;;;;16.60;8.80;;;17.90;53.70;;;;;;4953254;28;20435;-77
2022/05/18 03:28:51;;;;;;;14.17;8.90;;;18.00;52.30;;;;;;4952719;28;20886;-76
2022/05/18 03:31:17;;;;;;;24.70;8.90;;;18.10;51.00;;;;;;4953510;28;20994;-76
2022/05/18 03:33:44;;;;;;;12.43;8.70;;;18.10;51.20;;;;;;4954201;28;20914;-76
2022/05/18 03:36:12;;;;;;;13.53;8.97;;;18.00;51.60;;;;;;4952751;28;20501;-76
2022/05/18 03:38:38;;;;;;;18.60;9.83;;;18.10;52.60;;;;;;4952698;28;20450;-76
2022/05/18 03:41:08;;;;;;;11.57;9.13;;;18.20;52.20;;;;;;4952882;28;20493;-77
2022/05/18 03:43:34;;;;;;;14.17;8.10;;;18.20;51.00;;;;;;4967689;28;20447;-77
2022/05/18 03:45:59;;;;;;;14.10;9.10;;;18.20;50.80;;;;;;4952877;28;20451;-76
2022/05/18 03:48:26;;;;;;;16.40;8.87;;;18.10;51.70;;;;;;4952587;28;20543;-79
2022/05/18 03:50:54;;;;;;;16.70;9.40;;;18.10;51.60;;;;;;4954998;28;20195;-74
2022/05/18 03:53:19;;;;;;;17.50;8.40;;;18.00;50.80;;;;;;4952789;28;20526;-76
2022/05/18 03:55:45;;;;;;;16.23;9.40;;;17.70;51.00;;;;;;4953081;28;20526;-75
2022/05/18 03:58:12;;;;;;;15.03;9.80;;;17.60;54.00;;;;;;4952290;28;20203;-74
2022/05/18 04:00:40;;;;;;;15.40;9.20;;;17.60;53.40;;;;;;4954044;29;20191;-75
2022/05/18 04:03:06;;;;;;;16.70;9.77;;;17.70;53.10;;;;;;4953115;28;20912;-78
2022/05/18 04:05:32;;;;;;;18.83;9.97;;;17.80;52.70;;;;;;4951272;28;20458;-75
2022/05/18 04:08:00;;;;;;;16.60;9.97;;;18.00;52.70;;;;;;4951710;28;20446;-75
2022/05/18 04:10:25;;;;;;;19.10;12.13;;;17.90;51.60;;;;;;4952989;28;20438;-75
2022/05/18 04:12:51;;;;;;;13.93;10.43;;;17.80;52.10;;;;;;4953438;28;20864;-76
2022/05/18 04:15:17;;;;;;;12.77;9.30;;;17.40;53.70;;;;;;4986264;23;20290;-75
2022/05/18 04:17:45;;;;;;;21.90;9.20;;;17.40;53.70;;;;;;4958582;28;20194;-75
2022/05/18 04:20:12;;;;;;;16.30;10.00;;;17.20;56.60;;;;;;4959539;28;20438;-75
2022/05/18 04:22:38;;;;;;;23.30;9.70;;;17.70;54.10;;;;;;4959070;28;20492;-75
2022/05/18 04:25:04;;;;;;;16.27;8.90;;;17.80;53.70;;;;;;4957983;28;20467;-75
2022/05/18 04:27:32;;;;;;;15.13;9.13;;;18.00;52.70;;;;;;4952211;28;20210;-75
2022/05/18 04:29:58;;;;;;;16.83;9.77;;;18.00;51.40;;;;;;4952360;28;20502;-75
2022/05/18 04:32:24;;;;;;;16.23;9.37;;;17.70;52.90;;;;;;4953424;28;20426;-75
2022/05/18 04:34:50;;;;;;;13.50;9.00;;;16.80;58.80;;;;;;4953116;28;20492;-75
2022/05/18 04:37:17;;;;;;;28.30;9.87;;;16.50;59.40;;;;;;4952347;28;20996;-75
2022/05/18 04:39:43;;;;;;;14.97;9.80;;;16.40;61.30;;;;;;4953338;28;20450;-75
2022/05/18 04:42:10;;;;;;;19.33;9.60;;;16.80;60.70;;;;;;4952963;28;20579;-75
2022/05/18 04:44:37;;;;;;;19.30;9.30;;;16.40;61.40;;;;;;4961056;28;20450;-75
2022/05/18 04:47:03;;;;;;;15.10;8.93;;;16.60;60.00;;;;;;4952765;28;20477;-75
2022/05/18 04:49:29;;;;;;;13.73;8.80;;;16.40;62.50;;;;;;4952555;28;20561;-75
2022/05/18 04:51:55;;;;;;;14.30;9.47;;;16.80;59.30;;;;;;4952890;28;20783;-75
2022/05/18 04:54:20;;;;;;;20.90;9.77;;;16.30;64.00;;;;;;4952490;28;20462;-75
2022/05/18 04:56:46;;;;;;;16.70;10.00;;;16.20;64.70;;;;;;4952819;28;20207;-74
2022/05/18 04:59:15;;;;;;;17.87;9.80;;;15.90;66.50;;;;;;4952636;28;20213;-74
2022/05/18 05:01:42;;;;;;;33.47;9.87;;;15.80;69.30;;;;;;4952102;29;20434;-74
2022/05/18 05:04:13;;;;;;;25.30;10.27;;;16.10;66.10;;;;;;4952780;28;20438;-75
2022/05/18 05:06:40;;;;;;;14.80;9.87;;;16.80;64.70;;;;;;4952718;28;20455;-75
2022/05/18 05:09:07;;;;;;;22.00;10.43;;;17.10;60.30;;;;;;4953322;28;20467;-75
2022/05/18 05:11:32;;;;;;;30.67;10.43;;;17.40;59.60;;;;;;4952154;29;20482;-75
2022/05/18 05:13:58;;;;;;;18.90;10.50;;;17.90;57.80;;;;;;4952528;28;20465;-75
2022/05/18 05:16:26;;;;;;;13.33;10.40;;;17.90;57.20;;;;;;4948471;28;20219;-75
2022/05/18 05:18:52;;;;;;;16.17;10.40;;;18.30;55.70;;;;;;4949849;29;20652;-75
2022/05/18 05:21:17;;;;;;;23.40;10.63;;;18.70;51.90;;;;;;4952720;28;20447;-75
2022/05/18 05:23:43;;;;;;;20.17;10.23;;;18.70;50.90;;;;;;4952768;29;20660;-75
2022/05/18 05:26:09;;;;;;;21.17;10.67;;;17.90;55.50;;;;;;4952528;28;20209;-75
2022/05/18 05:28:34;;;;;;;23.20;11.47;;;18.40;54.90;;;;;;4953036;29;20199;-75
2022/05/18 05:31:05;;;;;;;24.90;10.90;;;18.40;53.20;;;;;;4952247;29;20683;-75
2022/05/18 05:33:31;;;;;;;25.83;12.60;;;18.70;54.20;;;;;;4952183;29;20661;-75
2022/05/18 05:35:58;;;;;;;21.07;12.40;;;18.40;51.30;;;;;;4951148;28;20463;-75
2022/05/18 05:38:24;;;;;;;28.63;11.10;;;18.30;53.30;;;;;;4952698;28;20436;-75
2022/05/18 05:40:50;;;;;;;24.67;11.67;;;18.00;55.80;;;;;;4952694;29;20483;-74
2022/05/18 05:43:16;;;;;;;20.87;12.57;;;18.30;53.40;;;;;;4952153;28;20709;-75
2022/05/18 05:45:42;;;;;;;19.03;11.70;;;18.20;55.20;;;;;;4952657;28;20677;-75
2022/05/18 05:48:10;;;;;;;18.17;11.80;;;17.90;55.90;;;;;;4950921;29;20193;-75
2022/05/18 05:50:36;;;;;;;21.07;13.20;;;17.70;57.70;;;;;;4952225;29;20225;-75
2022/05/18 05:53:02;;;;;;;22.00;13.97;;;17.70;58.60;;;;;;4955622;28;20461;-74
2022/05/18 05:55:28;;;;;;;23.60;12.17;;;18.10;56.10;;;;;;4955526;28;20206;-74
2022/05/18 05:57:55;;;;;;;21.87;11.57;;;18.30;56.30;;;;;;4948453;29;20438;-74
2022/05/18 06:00:23;;;;;;;21.30;10.40;;;18.30;55.10;;;;;;4952262;29;20440;-74
2022/05/18 06:02:50;;;;;;;17.20;12.30;;;18.40;55.60;;;;;;4952389;29;20441;-74
2022/05/18 06:05:17;;;;;;;36.63;11.50;;;18.30;55.20;;;;;;4954737;28;21019;-74
2022/05/18 06:07:43;;;;;;;25.07;10.87;;;18.60;55.50;;;;;;4957517;28;20436;-74
2022/05/18 06:10:10;;;;;;;14.37;9.90;;;19.40;50.70;;;;;;4949977;29;20478;-74
2022/05/18 06:12:36;;;;;;;18.10;9.90;;;19.50;50.80;;;;;;4968558;28;20472;-74
2022/05/18 06:15:03;;;;;;;14.27;9.37;;;19.90;49.20;;;;;;4965122;28;20430;-73
2022/05/18 06:17:28;;;;;;;19.30;10.50;;;19.60;48.90;;;;;;4956589;28;20435;-74
2022/05/18 06:19:54;;;;;;;14.20;10.40;;;19.10;52.70;;;;;;4957736;28;20468;-74
2022/05/18 06:22:19;;;;;;;14.47;9.80;;;19.10;52.10;;;;;;4960716;29;20670;-74
2022/05/18 06:24:49;;;;;;;18.10;10.47;;;19.00;54.40;;;;;;4956186;28;20193;-74
2022/05/18 06:27:15;;;;;;;18.60;10.73;;;18.90;54.70;;;;;;4953407;28;20203;-75
2022/05/18 06:29:41;;;;;;;18.43;10.33;;;19.30;52.70;;;;;;4952216;28;20512;-75
2022/05/18 06:32:07;;;;;;;18.47;11.17;;;19.40;51.80;;;;;;4951821;28;20512;-75
2022/05/18 06:34:33;;;;;;;26.10;17.10;;;19.60;51.40;;;;;;4953273;29;20458;-75
2022/05/18 06:36:58;;;;;;;33.40;21.17;;;19.70;50.40;;;;;;4952377;28;20537;-76
2022/05/18 06:39:24;;;;;;;16.43;9.70;;;20.10;49.50;;;;;;4953806;29;20646;-75
2022/05/18 06:41:50;;;;;;;24.10;15.70;;;19.80;48.60;;;;;;4954506;28;20669;-76
2022/05/18 06:44:16;;;;;;;14.60;9.10;;;20.10;49.00;;;;;;4953295;28;20572;-77
2022/05/18 06:46:42;;;;;;;18.40;8.97;;;20.90;45.60;;;;;;4954281;28;20463;-73
2022/05/18 06:49:11;;;;;;;14.20;8.30;;;20.90;44.90;;;;;;4952568;28;20464;-73
2022/05/18 06:51:40;;;;;;;28.03;9.10;;;20.80;44.10;;;;;;4952238;29;20194;-73
2022/05/18 06:54:06;;;;;;;12.70;9.10;;;20.60;44.80;;;;;;4955297;28;20443;-75
2022/05/18 06:56:35;;;;;;;20.07;9.67;;;21.20;43.60;;;;;;4952065;28;20461;-76
2022/05/18 06:59:01;;;;;;;12.67;8.80;;;21.20;43.90;;;;;;4954641;28;20498;-75
2022/05/18 07:01:28;;;;;;;10.70;7.87;;;20.90;44.00;;;;;;4954612;28;20845;-75
2022/05/18 07:03:54;;;;;;;10.87;7.00;;;21.00;44.40;;;;;;4950976;29;20821;-75
2022/05/18 07:06:22;;;;;;;9.93;6.50;;;21.60;40.40;;;;;;4953328;28;20450;-75
2022/05/18 07:08:51;;;;;;;15.40;6.53;;;22.40;36.20;;;;;;4954372;29;20207;-74
2022/05/18 07:11:18;;;;;;;10.30;7.13;;;22.60;34.80;;;;;;4950447;28;20840;-76
2022/05/18 07:13:46;;;;;;;14.77;6.00;;;22.60;34.50;;;;;;4953867;28;20433;-75
2022/05/18 07:16:12;;;;;;;11.93;6.87;;;22.70;33.40;;;;;;4950436;28;20468;-75
2022/05/18 07:18:38;;;;;;;10.70;6.30;;;22.90;33.50;;;;;;4950829;28;20444;-74
2022/05/18 07:21:06;;;;;;;7.73;5.77;;;23.20;32.80;;;;;;4951800;28;20443;-75
2022/05/18 07:23:32;;;;;;;9.43;6.13;;;23.50;32.50;;;;;;4953094;28;20194;-74
2022/05/18 07:25:59;;;;;;;15.03;5.90;;;23.80;31.80;;;;;;4952242;28;20468;-74
2022/05/18 07:28:25;;;;;;;14.00;6.40;;;23.80;30.70;;;;;;4951550;28;20471;-74
2022/05/18 07:30:52;;;;;;;9.40;6.03;;;24.20;30.60;;;;;;4954992;28;20494;-74
2022/05/18 07:33:20;;;;;;;11.63;6.77;;;24.30;29.30;;;;;;4954761;28;20805;-74
2022/05/18 07:35:46;;;;;;;8.97;6.10;;;24.30;29.30;;;;;;4952262;28;21035;-74
2022/05/18 07:38:12;;;;;;;8.67;5.77;;;24.20;29.00;;;;;;4955655;28;20523;-78
2022/05/18 07:40:38;;;;;;;14.40;6.10;;;24.10;31.30;;;;;;4962470;29;20243;-73
2022/05/18 07:43:04;;;;;;;10.77;6.70;;;24.10;30.50;;;;;;4965982;29;20972;-74
2022/05/18 07:45:30;;;;;;;8.50;5.87;;;24.30;29.50;;;;;;4953768;28;20453;-74
2022/05/18 07:47:56;;;;;;;11.57;6.60;;;24.60;29.30;;;;;;4953691;28;20509;-75
2022/05/18 07:50:24;;;;;;;8.20;5.83;;;24.80;29.40;;;;;;4954428;28;20298;-75
2022/05/18 07:52:51;;;;;;;8.20;5.73;;;24.70;29.30;;;;;;4954259;28;20501;-74
2022/05/18 07:55:16;;;;;;;10.10;6.33;;;24.60;29.90;;;;;;4953283;28;20547;-74
2022/05/18 07:57:42;;;;;;;10.00;6.50;;;24.70;28.40;;;;;;4952489;29;20886;-73
2022/05/18 08:00:10;;;;;;;7.43;5.83;;;24.60;28.20;;;;;;4952136;29;20685;-75
2022/05/18 08:02:36;;;;;;;12.07;5.77;;;24.60;29.30;;;;;;4954296;28;20449;-74
2022/05/18 08:05:02;;;;;;;9.13;5.60;;;24.40;29.20;;;;;;4952183;28;20454;-74
2022/05/18 08:07:27;;;;;;;12.20;6.00;;;24.50;29.20;;;;;;4954583;28;20183;-74
2022/05/18 08:15:22;;;;;;;8.17;5.70;;;25.00;28.70;;;;;;4953470;28;20494;-74
2022/05/18 08:17:48;;;;;;;9.57;6.13;;;25.00;27.80;;;;;;4954015;28;20426;-76
2022/05/18 08:20:16;;;;;;;14.63;5.60;;;25.40;26.90;;;;;;4953445;28;20921;-76
2022/05/18 08:22:43;;;;;;;12.40;6.40;;;25.70;26.50;;;;;;4953519;28;20513;-77
2022/05/18 08:25:09;;;;;;;8.17;5.27;;;25.50;27.50;;;;;;4954085;28;20858;-75
2022/05/18 08:27:46;;;;;;;10.23;5.97;;;25.40;26.40;;;;;;4952841;28;20501;-75
2022/05/18 08:30:15;;;;;;;9.37;5.73;;;25.30;28.10;;;;;;4953548;28;22031;-75
2022/05/18 08:32:41;;;;;;;8.43;5.60;;;25.60;27.40;;;;;;4953186;29;20505;-76
2022/05/18 08:35:08;;;;;;;14.33;5.53;;;25.80;27.20;;;;;;4952710;28;20466;-76
2022/05/18 08:37:52;;;;;;;9.10;5.30;;;26.00;25.50;;;;;;4953581;28;20442;-75
2022/05/18 08:40:57;;;;;;;12.07;6.07;;;25.90;25.80;;;;;;4952911;28;20437;-74
2022/05/18 08:43:35;;;;;;;8.53;5.43;;;25.90;24.70;;;;;;4952977;29;20435;-75
2022/05/18 08:46:36;;;;;;;11.03;5.33;;;26.40;25.10;;;;;;4952448;28;20940;-74
2022/05/18 08:49:28;;;;;;;14.73;5.40;;;26.50;26.40;;;;;;4944724;28;20462;-74
2022/05/18 08:52:03;;;;;;;13.00;5.50;;;26.40;24.60;;;;;;4948229;29;20514;-74
2022/05/18 08:54:53;;;;;;;12.67;7.10;;;26.50;25.30;;;;;;4963904;28;20500;-73
2022/05/18 08:57:23;;;;;;;8.47;5.93;;;26.70;25.00;;;;;;4952972;29;20925;-71
2022/05/18 08:59:53;;;;;;;11.40;5.73;;;26.80;24.80;;;;;;4953119;28;20430;-75
2022/05/18 09:02:23;;;;;;;13.53;5.37;;;26.60;23.70;;;;;;4952568;28;20431;-73
2022/05/18 09:04:55;;;;;;;10.77;5.67;;;26.60;22.90;;;;;;4950061;28;20866;-74
2022/05/18 09:07:26;;;;;;;8.13;5.10;;;26.50;24.30;;;;;;4952902;28;20434;-74
2022/05/18 09:10:14;;;;;;;7.93;5.20;;;26.70;23.30;;;;;;4953059;28;20474;-73
2022/05/18 09:12:57;;;;;;;8.10;5.30;;;27.00;25.00;;;;;;4948002;29;20441;-73
2022/05/18 09:15:37;;;;;;;9.70;5.60;;;27.40;24.10;;;;;;4945256;28;20541;-73
2022/05/18 09:18:32;;;;;;;7.07;4.90;;;27.30;23.20;;;;;;4952759;28;20438;-73
2022/05/18 09:20:57;;;;;;;10.03;5.53;;;27.40;23.20;;;;;;4951634;29;20442;-73
2022/05/18 09:23:29;;;;;;;7.87;5.20;;;27.40;22.50;;;;;;4952143;29;20437;-73
2022/05/18 09:26:12;;;;;;;8.53;5.13;;;27.30;24.50;;;;;;4952126;28;20203;-73
2022/05/18 09:28:49;;;;;;;7.10;5.20;;;27.60;22.70;;;;;;4947083;29;20494;-74
2022/05/18 09:31:44;;;;;;;9.60;5.40;;;27.80;22.10;;;;;;4951985;28;20960;-74
2022/05/18 09:34:22;;;;;;;7.13;5.00;;;28.10;22.70;;;;;;4950736;29;21130;-73
2022/05/18 09:37:28;;;;;;;6.43;4.70;;;28.00;22.30;;;;;;4952327;28;20461;-73
2022/05/18 09:40:20;;;;;;;10.97;4.80;;;28.10;21.10;;;;;;4911410;29;20530;-74
2022/05/18 09:42:54;;;;;;;8.00;5.00;;;28.20;21.10;;;;;;4910806;29;20877;-74
2022/05/18 09:45:25;;;;;;;9.63;5.30;;;27.80;22.00;;;;;;4912379;29;20448;-74
2022/05/18 09:47:56;;;;;;;9.50;4.20;;;27.60;22.60;;;;;;4911255;29;20444;-73
2022/05/18 09:50:22;;;;;;;8.80;4.30;;;27.70;21.50;;;;;;4911753;29;20527;-73
2022/05/18 09:52:49;;;;;;;11.00;4.40;;;28.10;21.80;;;;;;4912147;29;20452;-74
2022/05/18 09:55:20;;;;;;;7.00;4.03;;;27.90;20.40;;;;;;4914414;29;20478;-73
2022/05/18 09:57:53;;;;;;;5.27;3.93;;;26.70;21.10;;;;;;4911461;29;20447;-73
2022/05/18 10:00:26;;;;;;;6.70;4.07;;;26.90;21.80;;;;;;4912613;29;20429;-73
2022/05/18 10:08:34;;;;;;;8.70;4.20;;;28.40;20.80;;;;;;4911750;29;21095;-72
2022/05/18 10:11:12;;;;;;;8.80;4.13;;;28.50;21.50;;;;;;4909264;29;20432;-74
2022/05/18 10:13:52;;;;;;;10.33;3.40;;;28.80;20.20;;;;;;4915031;29;20507;-74
2022/05/18 10:16:48;;;;;;;7.57;3.63;;;28.70;20.50;;;;;;4948612;28;20477;-73
2022/05/18 10:19:44;;;;;;;5.70;3.53;;;28.90;18.80;;;;;;4950047;29;20951;-73
2022/05/18 10:22:17;;;;;;;7.53;3.60;;;29.10;19.60;;;;;;4943626;29;20453;-73
2022/05/18 10:25:03;;;;;;;8.17;3.57;;;29.00;18.90;;;;;;4952489;28;20434;-73
2022/05/18 10:27:31;;;;;;;11.47;4.00;;;28.90;17.90;;;;;;4951897;28;20446;-73
2022/05/18 10:30:37;;;;;;;5.17;3.60;;;29.00;19.00;;;;;;4949740;28;20466;-73
2022/05/18 10:33:20;;;;;;;7.03;3.50;;;29.10;18.70;;;;;;4950255;28;20509;-74
2022/05/18 10:35:49;;;;;;;11.03;3.53;;;29.60;16.80;;;;;;4949696;29;20458;-74
2022/05/18 10:38:18;;;;;;;8.10;3.43;;;29.90;19.30;;;;;;4957670;28;20422;-73
2022/05/18 10:40:44;;;;;;;4.33;3.27;;;29.80;18.40;;;;;;4965843;29;20458;-73
2022/05/18 10:43:28;;;;;;;4.60;3.30;;;29.80;16.20;;;;;;4950005;28;20454;-73
2022/05/18 10:45:57;;;;;;;6.23;3.27;;;29.40;16.00;;;;;;4944142;28;20458;-73
2022/05/18 10:48:24;;;;;;;9.53;4.73;;;29.50;18.30;;;;;;4949434;29;20414;-74
2022/05/18 10:51:09;;;;;;;5.50;3.40;;;29.90;16.90;;;;;;4988428;23;20496;-72
2022/05/18 10:53:46;;;;;;;6.03;3.80;;;30.30;17.40;;;;;;4976770;28;20439;-72
2022/05/18 10:56:32;;;;;;;5.40;3.33;;;30.50;16.10;;;;;;4995951;28;20514;-72
2022/05/18 10:59:48;;;;;;;5.73;3.43;;;30.60;15.60;;;;;;4992478;28;20432;-72
2022/05/18 11:02:34;;;;;;;5.97;3.20;;;31.20;12.90;;;;;;4914245;28;20533;-72
2022/05/18 11:05:20;;;;;;;3.60;2.80;;;31.30;13.90;;;;;;4973917;28;20442;-71
2022/05/18 11:07:46;;;;;;;7.40;3.50;;;31.40;16.30;;;;;;4974630;28;20496;-72
2022/05/18 11:10:13;;;;;;;4.00;3.23;;;31.40;13.20;;;;;;4975089;28;20473;-71
2022/05/18 11:12:56;;;;;;;7.57;3.43;;;31.60;14.60;;;;;;4973000;28;20976;-72
2022/05/18 11:15:42;;;;;;;11.43;4.80;;;31.60;13.10;;;;;;4966190;28;20437;-71
2022/05/18 11:18:42;;;;;;;16.63;4.03;;;31.50;14.70;;;;;;4972147;28;20456;-71
2022/05/18 11:21:14;;;;;;;5.83;3.10;;;31.50;17.10;;;;;;4974002;28;20441;-72
2022/05/18 11:23:55;;;;;;;6.40;3.20;;;31.60;14.70;;;;;;4974646;28;20775;-72
2022/05/18 11:27:00;;;;;;;8.23;3.70;;;32.60;14.70;;;;;;4973011;28;20484;-72
2022/05/18 11:29:29;;;;;;;4.20;2.80;;;33.50;12.00;;;;;;4963731;28;20824;-72
2022/05/18 11:32:19;;;;;;;4.33;2.83;;;34.40;15.20;;;;;;4972431;28;20413;-72
2022/05/18 11:34:59;;;;;;;4.63;2.57;;;34.40;10.70;;;;;;4964382;28;20425;-71
2022/05/18 11:37:53;;;;;;;4.07;3.00;;;35.10;10.30;;;;;;4970307;28;20430;-72
2022/05/18 11:40:40;;;;;;;4.17;2.37;;;36.60;10.00;;;;;;4968715;28;20557;-73
2022/05/18 11:43:30;;;;;;;6.07;2.53;;;36.40;8.20;;;;;;4966680;28;20433;-73
2022/05/18 11:46:16;;;;;;;4.63;2.80;;;36.40;9.80;;;;;;4972808;28;20440;-72
2022/05/18 11:48:56;;;;;;;3.40;2.47;;;36.30;8.50;;;;;;4969342;28;20552;-72
2022/05/18 11:51:46;;;;;;;3.90;2.30;;;37.50;7.90;;;;;;4968751;28;20866;-72
2022/05/18 11:54:37;;;;;;;4.00;2.20;;;36.70;8.50;;;;;;4967143;28;20457;-73
2022/05/18 11:57:30;;;;;;;3.90;2.30;;;37.50;6.90;;;;;;4974165;28;20461;-72
2022/05/18 12:00:12;;;;;;;3.43;2.20;;;37.80;6.00;;;;;;4974063;28;20541;-72
2022/05/18 12:02:50;;;;;;;5.83;2.43;;;37.50;5.50;;;;;;4973822;28;20464;-72
2022/05/18 12:05:28;;;;;;;3.97;2.50;;;38.60;6.20;;;;;;4974188;28;20406;-72
2022/05/18 12:08:27;;;;;;;3.90;2.30;;;37.40;6.10;;;;;;4974079;28;20963;-72
2022/05/18 12:11:30;;;;;;;4.83;2.40;;;37.90;5.30;;;;;;4973634;28;20445;-72
2022/05/18 12:14:14;;;;;;;4.77;2.10;;;38.00;6.50;;;;;;4973246;28;20433;-72
2022/05/18 12:17:04;;;;;;;4.67;2.50;;;36.50;6.00;;;;;;4966475;28;20951;-72
2022/05/18 12:19:53;;;;;;;6.27;2.40;;;37.10;5.70;;;;;;4970709;28;20433;-73
2022/05/18 12:22:44;;;;;;;5.13;2.80;;;37.80;6.10;;;;;;4970839;28;20440;-72
2022/05/18 12:25:12;;;;;;;11.13;3.10;;;37.30;8.10;;;;;;4970190;28;20426;-72
2022/05/18 12:27:39;;;;;;;6.50;2.70;;;36.80;8.00;;;;;;4972812;28;20429;-72
2022/05/18 12:30:08;;;;;;;6.00;2.60;;;36.40;6.30;;;;;;4971911;28;20849;-72
2022/05/18 12:32:35;;;;;;;4.87;2.83;;;35.50;7.70;;;;;;4969160;28;20429;-71
2022/05/18 12:35:13;;;;;;;4.10;2.40;;;34.90;7.80;;;;;;4974039;28;20529;-71
2022/05/18 12:38:02;;;;;;;6.17;2.57;;;34.60;10.70;;;;;;4957128;28;20444;-71
2022/05/18 12:40:48;;;;;;;4.70;2.57;;;34.40;9.20;;;;;;4970237;28;20487;-71
2022/05/18 12:43:16;;;;;;;6.20;2.70;;;33.80;10.90;;;;;;4971340;28;20465;-72
2022/05/18 12:45:45;;;;;;;5.00;3.07;;;33.90;9.90;;;;;;4970623;28;20457;-72
2022/05/18 12:48:22;;;;;;;3.57;2.90;;;34.20;10.90;;;;;;4971681;28;20769;-72
2022/05/18 12:50:48;;;;;;;5.60;2.97;;;33.80;12.10;;;;;;4972117;28;20476;-73
2022/05/18 12:53:26;;;;;;;8.13;2.70;;;34.60;11.90;;;;;;4972379;28;20438;-72
2022/05/18 12:55:59;;;;;;;6.60;3.03;;;34.20;7.90;;;;;;4968784;28;20181;-72
2022/05/18 12:58:36;;;;;;;7.13;3.07;;;34.00;11.20;;;;;;4965342;28;20998;-72
2022/05/18 13:01:21;;;;;;;5.63;2.70;;;34.40;12.70;;;;;;4969303;28;20489;-72
2022/05/18 13:04:00;;;;;;;4.80;2.90;;;34.70;10.70;;;;;;4968622;28;20971;-71
2022/05/18 13:06:44;;;;;;;4.90;3.10;;;34.50;10.80;;;;;;4967210;28;20488;-72
2022/05/18 13:09:22;;;;;;;4.70;3.13;;;33.20;10.70;;;;;;4970613;28;20916;-72
2022/05/18 13:12:12;;;;;;;6.07;3.17;;;33.30;11.60;;;;;;4971278;28;20520;-72
2022/05/18 13:15:03;;;;;;;5.17;3.20;;;33.50;13.90;;;;;;4966519;28;20979;-72
2022/05/18 13:17:51;;;;;;;7.50;2.93;;;34.00;12.40;;;;;;4970533;28;20426;-72